Time;durP1;ratioP1;P1;durP2;ratioP2;P2;SDS_P1;SDS_P2;PMS_P1;PMS_P2;Temp;Humidity;BMP_temperature;BMP_pressure;BME280_temperature;BME280_humidity;BME280_pressure;Samples;Min_cycle;Max_cycle;Signal;HPM_P1;HPM_P2
2022/04/07 00:01:20;;;;;;;2.33;1.90;;;12.80;74.20;;;;;;5014006;28;20041;-78
2022/04/07 00:03:45;;;;;;;2.88;2.00;;;12.70;74.10;;;;;;5021366;28;20405;-76
2022/04/07 00:06:11;;;;;;;2.70;1.92;;;12.80;74.10;;;;;;5033466;28;20026;-76
2022/04/07 00:08:38;;;;;;;3.08;1.88;;;12.80;74.10;;;;;;5031927;28;20068;-76
2022/04/07 00:11:04;;;;;;;2.65;1.98;;;12.80;74.20;;;;;;5018014;28;20048;-76
2022/04/07 00:13:31;;;;;;;2.50;1.90;;;12.80;74.10;;;;;;4999003;28;20043;-76
2022/04/07 00:15:59;;;;;;;2.38;1.88;;;12.80;74.20;;;;;;5032049;28;20025;-76
2022/04/07 00:18:25;;;;;;;3.08;2.08;;;12.80;74.80;;;;;;5023490;28;20029;-77
2022/04/07 00:20:52;;;;;;;3.05;2.28;;;12.80;74.20;;;;;;5030049;28;20080;-76
2022/04/07 00:23:19;;;;;;;2.15;1.92;;;12.80;74.20;;;;;;4998418;28;20049;-76
2022/04/07 00:25:45;;;;;;;2.00;1.80;;;12.80;74.20;;;;;;5017544;28;20061;-78
2022/04/07 00:28:11;;;;;;;2.33;1.90;;;12.80;74.20;;;;;;5045472;28;20068;-77
2022/04/07 00:30:39;;;;;;;2.72;1.90;;;12.80;74.20;;;;;;5036231;28;20539;-76
2022/04/07 00:33:05;;;;;;;2.22;1.92;;;12.80;74.20;;;;;;5007020;28;20037;-76
2022/04/07 00:35:32;;;;;;;2.22;1.90;;;12.80;74.20;;;;;;5013950;28;20080;-75
2022/04/07 00:37:57;;;;;;;2.15;1.83;;;12.80;74.20;;;;;;5030806;28;20108;-75
2022/04/07 00:40:23;;;;;;;2.65;2.05;;;12.80;74.20;;;;;;5019397;28;20132;-76
2022/04/07 00:42:51;;;;;;;2.10;1.80;;;12.80;74.80;;;;;;5022039;28;20052;-78
2022/04/07 00:45:19;;;;;;;2.33;1.80;;;12.80;74.20;;;;;;5034126;28;20044;-76
2022/04/07 00:47:46;;;;;;;1.95;1.80;;;12.80;74.20;;;;;;5018542;28;20056;-76
2022/04/07 00:50:13;;;;;;;2.25;2.05;;;12.80;74.20;;;;;;5031171;28;20441;-76
2022/04/07 00:52:44;;;;;;;3.08;1.85;;;12.80;74.20;;;;;;4997853;28;20021;-76
2022/04/07 00:55:11;;;;;;;2.55;1.77;;;12.80;74.20;;;;;;5031655;28;20021;-76
2022/04/07 00:57:41;;;;;;;1.63;1.52;;;12.80;74.20;;;;;;5016398;28;20040;-76
2022/04/07 01:00:09;;;;;;;2.33;1.90;;;12.70;74.20;;;;;;5032393;28;20025;-76
2022/04/07 01:02:36;;;;;;;2.50;1.88;;;12.80;74.30;;;;;;5014192;28;20360;-77
2022/04/07 01:05:03;;;;;;;2.30;1.70;;;12.80;74.20;;;;;;5018859;28;20044;-76
2022/04/07 01:07:29;;;;;;;1.90;1.70;;;12.80;74.20;;;;;;5032814;28;20086;-77
2022/04/07 01:09:54;;;;;;;2.55;1.80;;;12.80;74.20;;;;;;5031445;28;20034;-76
2022/04/07 01:12:20;;;;;;;3.10;2.00;;;12.70;74.20;;;;;;5022480;28;20115;-78
2022/04/07 01:15:00;;;;;;;2.13;1.70;;;12.70;74.20;;;;;;5020480;28;20039;-76
2022/04/07 01:17:27;;;;;;;2.53;1.73;;;12.80;74.30;;;;;;5038294;28;20029;-76
2022/04/07 01:19:53;;;;;;;1.52;1.42;;;12.70;74.20;;;;;;5022315;28;20654;-77
2022/04/07 01:22:23;;;;;;;2.33;1.52;;;12.70;74.20;;;;;;5038324;28;20053;-76
2022/04/07 01:24:49;;;;;;;2.08;1.60;;;12.80;74.30;;;;;;5038413;28;20037;-78
2022/04/07 01:27:16;;;;;;;1.70;1.48;;;12.80;74.20;;;;;;5013713;28;20045;-77
2022/04/07 01:29:43;;;;;;;2.53;1.70;;;12.70;74.20;;;;;;5034031;28;20120;-77
2022/04/07 01:32:36;;;;;;;1.77;1.50;;;12.70;74.20;;;;;;5012961;28;20378;-76
2022/04/07 01:35:02;;;;;;;2.42;1.50;;;12.70;74.20;;;;;;5021238;28;20039;-77
2022/04/07 01:37:30;;;;;;;1.85;1.60;;;12.70;74.20;;;;;;5012447;28;20030;-77
2022/04/07 01:39:56;;;;;;;1.85;1.58;;;12.70;74.20;;;;;;5012131;28;20038;-76
2022/04/07 01:42:22;;;;;;;2.50;1.42;;;12.70;74.20;;;;;;5012974;28;20041;-76
2022/04/07 01:44:52;;;;;;;1.70;1.50;;;12.70;74.30;;;;;;5016083;28;20034;-75
2022/04/07 01:47:20;;;;;;;2.03;1.33;;;12.70;74.30;;;;;;5021669;28;20109;-76
2022/04/07 01:49:56;;;;;;;2.45;1.55;;;12.70;74.30;;;;;;5037596;28;20061;-76
2022/04/07 01:52:23;;;;;;;1.98;1.42;;;12.70;74.30;;;;;;5038762;28;20039;-76
2022/04/07 01:54:50;;;;;;;1.88;1.30;;;12.70;74.30;;;;;;5034820;28;20049;-76
2022/04/07 01:57:20;;;;;;;2.42;1.60;;;12.70;74.30;;;;;;5037624;28;20048;-75
2022/04/07 01:59:46;;;;;;;1.35;1.25;;;12.70;74.30;;;;;;5028157;28;20041;-76
2022/04/07 02:02:12;;;;;;;1.40;1.20;;;12.70;74.30;;;;;;5010327;28;20038;-75
2022/04/07 02:04:55;;;;;;;1.67;1.20;;;12.70;74.30;;;;;;5033553;28;20040;-76
2022/04/07 02:07:22;;;;;;;2.35;1.30;;;12.70;74.40;;;;;;5030746;28;20045;-75
2022/04/07 02:09:48;;;;;;;3.05;1.50;;;12.70;74.30;;;;;;5034163;28;20359;-75
2022/04/07 02:12:14;;;;;;;1.48;1.38;;;12.70;74.30;;;;;;5015127;28;20031;-76
2022/04/07 02:14:40;;;;;;;1.63;1.20;;;12.70;74.30;;;;;;5030342;28;20021;-76
2022/04/07 02:17:06;;;;;;;2.17;1.30;;;12.70;74.40;;;;;;5018405;28;20394;-76
2022/04/07 02:19:32;;;;;;;1.77;1.40;;;12.70;75.00;;;;;;5039081;28;20044;-75
2022/04/07 02:21:58;;;;;;;2.53;1.35;;;12.70;74.30;;;;;;5028388;28;20417;-76
2022/04/07 02:24:24;;;;;;;2.17;1.27;;;12.70;74.40;;;;;;4998108;28;20594;-76
2022/04/07 02:26:50;;;;;;;2.13;1.30;;;12.70;74.40;;;;;;5029051;28;20362;-77
2022/04/07 02:29:15;;;;;;;2.17;1.30;;;12.70;74.30;;;;;;5018751;28;20445;-77
2022/04/07 02:31:41;;;;;;;2.42;1.33;;;12.70;74.40;;;;;;5016849;28;20457;-76
2022/04/07 02:34:07;;;;;;;2.17;1.20;;;12.70;74.40;;;;;;5018004;28;20044;-76
2022/04/07 02:36:32;;;;;;;1.95;1.30;;;12.70;74.40;;;;;;5016557;28;20083;-75
2022/04/07 02:38:59;;;;;;;1.40;1.30;;;12.70;74.40;;;;;;5030546;28;20090;-75
2022/04/07 02:41:24;;;;;;;2.13;1.40;;;12.60;74.30;;;;;;5019455;28;20044;-76
2022/04/07 02:43:51;;;;;;;1.90;1.40;;;12.60;74.30;;;;;;5032278;28;20133;-76
2022/04/07 02:46:17;;;;;;;1.70;1.30;;;12.60;74.30;;;;;;5036730;28;20075;-75
2022/04/07 02:48:42;;;;;;;2.78;1.40;;;12.60;74.40;;;;;;5019960;28;20124;-76
2022/04/07 02:51:08;;;;;;;1.48;1.33;;;12.70;74.50;;;;;;5040269;28;20390;-77
2022/04/07 02:53:34;;;;;;;2.05;1.30;;;12.60;74.40;;;;;;5018001;28;20033;-75
2022/04/07 02:56:00;;;;;;;2.33;1.30;;;12.60;74.40;;;;;;5036863;28;20040;-77
2022/04/07 02:58:26;;;;;;;1.67;1.33;;;12.60;74.40;;;;;;5018147;28;20037;-76
2022/04/07 03:00:51;;;;;;;1.98;1.40;;;12.60;74.40;;;;;;5008412;28;20379;-76
2022/04/07 03:03:17;;;;;;;2.03;1.40;;;12.60;74.40;;;;;;5000553;28;20378;-76
2022/04/07 03:05:43;;;;;;;2.20;1.45;;;12.60;74.40;;;;;;5017149;28;20482;-76
2022/04/07 03:08:09;;;;;;;3.38;1.70;;;12.60;74.40;;;;;;5015109;28;20036;-76
2022/04/07 03:10:35;;;;;;;2.22;1.52;;;12.60;74.40;;;;;;5039588;28;20171;-76
2022/04/07 03:13:00;;;;;;;2.13;1.48;;;12.60;74.40;;;;;;5019504;28;20032;-75
2022/04/07 03:15:27;;;;;;;1.75;1.38;;;12.60;74.40;;;;;;5014450;28;20045;-75
2022/04/07 03:17:52;;;;;;;2.45;1.30;;;12.50;74.30;;;;;;5020547;28;20025;-76
2022/04/07 03:20:18;;;;;;;2.00;1.33;;;12.60;74.40;;;;;;5011818;28;20527;-76
2022/04/07 03:22:44;;;;;;;1.70;1.45;;;12.60;74.30;;;;;;5021795;28;20068;-76
2022/04/07 03:25:10;;;;;;;2.90;1.40;;;12.60;74.40;;;;;;5034129;28;20107;-76
2022/04/07 03:27:35;;;;;;;2.35;1.40;;;12.50;74.30;;;;;;5020434;28;20033;-76
2022/04/07 03:30:01;;;;;;;3.22;1.70;;;12.50;74.30;;;;;;5032245;28;20030;-75
2022/04/07 03:32:27;;;;;;;2.25;1.45;;;12.50;74.40;;;;;;5016377;28;20029;-82
2022/04/07 03:34:53;;;;;;;4.68;1.60;;;12.50;74.30;;;;;;5003167;28;20091;-77
2022/04/07 03:37:20;;;;;;;3.05;1.60;;;12.50;74.30;;;;;;5014201;28;20056;-77
2022/04/07 03:39:46;;;;;;;2.67;1.60;;;12.50;74.40;;;;;;5023653;28;20128;-76
2022/04/07 03:42:12;;;;;;;1.92;1.40;;;12.50;74.40;;;;;;5020830;28;20152;-75
2022/04/07 03:44:37;;;;;;;3.42;1.58;;;12.50;74.40;;;;;;5017809;28;20037;-76
2022/04/07 03:47:04;;;;;;;3.20;1.67;;;12.50;74.40;;;;;;5041397;28;20025;-75
2022/04/07 03:49:30;;;;;;;2.53;1.33;;;12.50;74.40;;;;;;5024410;28;20044;-76
2022/04/07 03:51:56;;;;;;;3.05;1.75;;;12.50;74.40;;;;;;5039626;28;20041;-76
2022/04/07 03:54:22;;;;;;;2.90;1.77;;;12.50;74.40;;;;;;5031607;28;20025;-75
2022/04/07 03:56:47;;;;;;;3.03;1.60;;;12.50;74.40;;;;;;5015188;28;20367;-75
2022/04/07 03:59:13;;;;;;;5.57;1.60;;;12.50;74.40;;;;;;5013600;28;20038;-75
2022/04/07 04:01:40;;;;;;;3.05;1.52;;;12.50;74.40;;;;;;5015460;28;20069;-76
2022/04/07 04:04:06;;;;;;;4.30;1.40;;;12.50;74.40;;;;;;5031165;28;20079;-75
2022/04/07 04:06:35;;;;;;;2.67;1.50;;;12.50;74.40;;;;;;5049044;28;20029;-74
2022/04/07 04:09:01;;;;;;;1.75;1.50;;;12.50;74.40;;;;;;5031596;28;20037;-75
2022/04/07 04:11:27;;;;;;;2.60;1.52;;;12.50;74.40;;;;;;5015516;28;21485;-74
2022/04/07 04:13:52;;;;;;;1.95;1.40;;;12.50;74.40;;;;;;5006602;28;20037;-75
2022/04/07 04:16:18;;;;;;;4.28;1.63;;;12.50;74.40;;;;;;5017440;28;20044;-76
2022/04/07 04:18:44;;;;;;;2.08;1.30;;;12.40;74.30;;;;;;5018456;28;20763;-78
2022/04/07 04:21:10;;;;;;;3.42;2.05;;;12.40;74.30;;;;;;5047448;28;20041;-75
2022/04/07 04:23:38;;;;;;;2.03;1.40;;;12.50;74.40;;;;;;5047641;28;20045;-76
2022/04/07 04:26:04;;;;;;;2.53;1.38;;;12.40;74.40;;;;;;4987898;28;20041;-75
2022/04/07 04:28:30;;;;;;;1.60;1.25;;;12.50;74.40;;;;;;5035065;28;20382;-75
2022/04/07 04:30:55;;;;;;;1.85;1.40;;;12.40;74.30;;;;;;5021122;28;20044;-75
2022/04/07 04:33:21;;;;;;;3.13;1.77;;;12.40;74.30;;;;;;5024604;28;20542;-75
2022/04/07 04:35:47;;;;;;;2.05;1.45;;;12.40;74.30;;;;;;5023943;28;20048;-75
2022/04/07 04:38:13;;;;;;;2.55;1.45;;;12.40;74.40;;;;;;4990553;28;20566;-75
2022/04/07 04:40:39;;;;;;;1.80;1.30;;;12.40;74.40;;;;;;5037460;28;20509;-75
2022/04/07 04:43:04;;;;;;;2.55;1.30;;;12.40;74.30;;;;;;5031532;28;20037;-75
2022/04/07 04:45:30;;;;;;;4.00;1.90;;;12.40;74.30;;;;;;5019414;28;20028;-75
2022/04/07 04:47:56;;;;;;;3.08;1.40;;;12.40;74.30;;;;;;4993735;28;20046;-74
2022/04/07 04:50:22;;;;;;;3.30;1.52;;;12.40;74.30;;;;;;5033955;28;20029;-76
2022/04/07 04:52:48;;;;;;;2.22;1.63;;;12.40;74.40;;;;;;5037773;28;20025;-75
2022/04/07 04:55:14;;;;;;;2.03;1.20;;;12.40;74.30;;;;;;5034166;28;20448;-75
2022/04/07 04:57:40;;;;;;;2.67;1.30;;;12.40;74.40;;;;;;5038265;28;20117;-75
2022/04/07 05:00:06;;;;;;;3.63;1.40;;;12.40;74.30;;;;;;5016030;28;20091;-74
2022/04/07 05:02:32;;;;;;;1.95;1.20;;;12.40;74.40;;;;;;5027546;28;20092;-75
2022/04/07 05:04:58;;;;;;;2.65;1.30;;;12.40;74.40;;;;;;5023413;28;20041;-74
2022/04/07 05:07:23;;;;;;;6.60;1.85;;;12.40;74.40;;;;;;5005953;28;20041;-74
2022/04/07 05:09:55;;;;;;;3.67;1.60;;;12.40;74.40;;;;;;5039048;28;20421;-74
2022/04/07 05:12:21;;;;;;;1.40;1.20;;;12.40;74.40;;;;;;5030936;28;20025;-76
2022/04/07 05:14:47;;;;;;;2.45;1.55;;;12.40;74.40;;;;;;5012652;28;20040;-76
2022/04/07 05:17:12;;;;;;;2.78;1.40;;;12.40;74.30;;;;;;5010870;28;20115;-74
2022/04/07 05:19:38;;;;;;;1.90;1.40;;;12.40;74.30;;;;;;5038248;28;20112;-75
2022/04/07 05:22:04;;;;;;;1.30;1.20;;;12.40;74.40;;;;;;5001020;28;20409;-76
2022/04/07 05:24:30;;;;;;;2.15;1.23;;;12.30;74.30;;;;;;5029195;28;20112;-74
2022/04/07 05:26:56;;;;;;;2.40;1.30;;;12.30;74.30;;;;;;4997411;28;20037;-75
2022/04/07 05:29:22;;;;;;;2.00;1.40;;;12.40;74.30;;;;;;5016647;28;20440;-74
2022/04/07 05:31:48;;;;;;;1.98;1.30;;;12.30;74.30;;;;;;5032014;28;20064;-75
2022/04/07 05:34:13;;;;;;;1.55;1.20;;;12.40;74.30;;;;;;5031333;28;20037;-74
2022/04/07 05:36:40;;;;;;;1.58;1.20;;;12.40;74.30;;;;;;5009467;28;20026;-76
2022/04/07 05:39:06;;;;;;;2.47;1.40;;;12.40;74.30;;;;;;5011818;28;20043;-76
2022/04/07 05:41:32;;;;;;;1.63;1.30;;;12.40;74.30;;;;;;5018718;28;20125;-76
2022/04/07 05:43:58;;;;;;;3.22;1.33;;;12.40;74.30;;;;;;5020624;28;20455;-74
2022/04/07 05:46:23;;;;;;;1.50;1.10;;;12.30;74.30;;;;;;5038137;28;20017;-74
2022/04/07 05:48:49;;;;;;;2.00;1.38;;;12.30;74.30;;;;;;5030102;28;20040;-76
2022/04/07 05:51:15;;;;;;;1.45;1.33;;;12.40;74.30;;;;;;5038230;28;20048;-75
2022/04/07 05:53:40;;;;;;;2.63;1.30;;;12.40;74.30;;;;;;5046669;28;20022;-74
2022/04/07 05:56:06;;;;;;;1.75;1.20;;;12.40;74.30;;;;;;5037807;28;20036;-75
2022/04/07 05:58:32;;;;;;;1.10;1.10;;;12.30;74.30;;;;;;5046216;28;20029;-75
2022/04/07 06:00:58;;;;;;;1.65;1.20;;;12.40;74.30;;;;;;5029033;28;20029;-76
2022/04/07 06:03:23;;;;;;;1.40;1.30;;;12.30;74.30;;;;;;5021120;28;20037;-73
2022/04/07 06:05:52;;;;;;;3.80;1.48;;;12.40;74.30;;;;;;5028948;28;20032;-78
2022/04/07 06:08:22;;;;;;;1.60;1.38;;;12.40;74.30;;;;;;5029762;28;20030;-76
2022/04/07 06:10:48;;;;;;;1.50;1.25;;;12.40;74.30;;;;;;5024654;28;20036;-74
2022/04/07 06:13:14;;;;;;;1.05;1.02;;;12.30;74.30;;;;;;5033092;28;20025;-74
2022/04/07 06:15:41;;;;;;;2.05;1.17;;;12.40;74.30;;;;;;5031997;28;20041;-74
2022/04/07 06:18:06;;;;;;;1.67;1.20;;;12.40;74.30;;;;;;5040379;28;20087;-74
2022/04/07 06:20:32;;;;;;;1.55;1.20;;;12.40;74.30;;;;;;5011812;28;20577;-74
2022/04/07 06:23:00;;;;;;;1.60;1.08;;;12.40;74.30;;;;;;5017547;28;20252;-74
2022/04/07 06:25:27;;;;;;;2.40;1.33;;;12.30;74.30;;;;;;5033030;28;20049;-74
2022/04/07 06:27:52;;;;;;;1.60;1.17;;;12.40;74.30;;;;;;5040325;28;20033;-73
2022/04/07 06:30:19;;;;;;;2.20;1.35;;;12.40;74.30;;;;;;5034652;28;20485;-74
2022/04/07 06:32:47;;;;;;;1.20;1.10;;;12.40;74.30;;;;;;5010775;28;20026;-74
2022/04/07 06:35:14;;;;;;;3.30;1.20;;;12.40;74.30;;;;;;5024032;28;20025;-74
2022/04/07 06:37:52;;;;;;;1.63;1.20;;;12.40;74.30;;;;;;5034324;28;20025;-73
2022/04/07 06:40:23;;;;;;;2.60;0.98;;;12.40;74.30;;;;;;5038068;28;20032;-74
2022/04/07 06:42:50;;;;;;;1.13;1.02;;;12.30;74.20;;;;;;5033838;28;20022;-74
2022/04/07 06:45:16;;;;;;;1.25;1.10;;;12.40;74.30;;;;;;5016916;28;20651;-74
2022/04/07 06:47:42;;;;;;;2.00;1.13;;;12.40;74.30;;;;;;5038592;28;20029;-74
2022/04/07 06:50:16;;;;;;;1.80;1.30;;;12.40;74.30;;;;;;5020627;28;20476;-74
2022/04/07 06:52:43;;;;;;;1.65;1.42;;;12.40;74.40;;;;;;5036705;28;20029;-75
2022/04/07 06:55:10;;;;;;;1.75;1.10;;;12.40;74.30;;;;;;5012177;28;20408;-75
2022/04/07 06:58:01;;;;;;;1.20;1.10;;;12.40;74.40;;;;;;5020043;28;20029;-75
2022/04/07 07:00:29;;;;;;;1.10;1.00;;;12.40;74.50;;;;;;5028052;28;20095;-76
2022/04/07 07:02:57;;;;;;;1.25;1.00;;;12.40;74.40;;;;;;5029024;28;20060;-75
2022/04/07 07:05:24;;;;;;;1.50;1.40;;;12.40;74.40;;;;;;5030297;28;20049;-75
2022/04/07 07:07:51;;;;;;;1.70;1.33;;;12.40;74.40;;;;;;5039580;28;20499;-75
2022/04/07 07:10:24;;;;;;;2.97;1.25;;;12.40;74.50;;;;;;5022859;28;20471;-75
2022/04/07 07:12:50;;;;;;;1.40;1.10;;;12.40;74.50;;;;;;5035908;28;20032;-75
2022/04/07 07:15:17;;;;;;;2.08;1.15;;;12.40;74.50;;;;;;5015626;28;20026;-74
2022/04/07 07:17:43;;;;;;;2.15;1.48;;;12.40;74.50;;;;;;5032910;28;20091;-74
2022/04/07 07:20:10;;;;;;;2.78;1.58;;;12.40;74.50;;;;;;5032935;28;20025;-75
2022/04/07 07:22:40;;;;;;;1.05;0.95;;;12.40;74.50;;;;;;5049780;28;20385;-74
2022/04/07 07:25:07;;;;;;;2.83;1.30;;;12.40;74.50;;;;;;5036738;28;20448;-74
2022/04/07 07:27:44;;;;;;;1.20;1.10;;;12.40;74.40;;;;;;5040150;28;20499;-75
2022/04/07 07:30:12;;;;;;;0.98;0.98;;;12.40;74.50;;;;;;5041195;28;20045;-73
2022/04/07 07:32:38;;;;;;;1.73;1.17;;;12.40;74.40;;;;;;5024087;28;20017;-73
2022/04/07 07:35:05;;;;;;;2.33;1.10;;;12.40;74.40;;;;;;5049954;28;20033;-75
2022/04/07 07:37:31;;;;;;;1.38;1.08;;;12.40;74.40;;;;;;5018379;28;20116;-74
2022/04/07 07:39:57;;;;;;;1.08;0.90;;;12.40;74.40;;;;;;5048036;28;20439;-74
2022/04/07 07:42:24;;;;;;;0.95;0.90;;;12.40;74.30;;;;;;5020840;28;20049;-74
2022/04/07 07:44:49;;;;;;;1.10;1.00;;;12.30;74.30;;;;;;5045310;28;20068;-74
2022/04/07 07:47:15;;;;;;;2.03;1.10;;;12.30;74.20;;;;;;5023219;28;20042;-74
2022/04/07 07:49:41;;;;;;;1.10;1.00;;;12.30;74.20;;;;;;5031604;28;20053;-74
2022/04/07 07:52:06;;;;;;;1.77;0.88;;;12.30;74.20;;;;;;5030953;28;20065;-74
2022/04/07 07:54:32;;;;;;;0.82;0.82;;;12.30;74.20;;;;;;5032069;28;20041;-74
2022/04/07 07:56:58;;;;;;;1.15;1.00;;;12.30;74.20;;;;;;5041385;28;20032;-74
2022/04/07 07:59:24;;;;;;;1.05;0.95;;;12.30;74.20;;;;;;5025157;28;20025;-74
2022/04/07 08:01:49;;;;;;;0.93;0.90;;;12.30;74.20;;;;;;5043114;28;20771;-74
2022/04/07 08:04:15;;;;;;;0.95;0.90;;;12.20;74.10;;;;;;5042249;28;20033;-75
2022/04/07 08:06:41;;;;;;;0.95;0.80;;;12.20;74.10;;;;;;5031462;28;20029;-75
2022/04/07 08:09:10;;;;;;;1.05;0.90;;;12.20;74.10;;;;;;5032971;28;20025;-74
2022/04/07 08:11:36;;;;;;;1.48;0.82;;;12.20;74.10;;;;;;5025731;28;20049;-75
2022/04/07 08:14:02;;;;;;;1.27;0.93;;;12.20;74.00;;;;;;5022307;28;20052;-77
2022/04/07 08:16:31;;;;;;;1.80;1.10;;;12.10;74.00;;;;;;5035319;28;20109;-71
2022/04/07 08:18:57;;;;;;;0.98;0.90;;;12.10;74.00;;;;;;5032747;28;20030;-75
2022/04/07 08:21:23;;;;;;;1.02;0.82;;;12.10;74.00;;;;;;5035921;28;20052;-74
2022/04/07 08:23:48;;;;;;;1.23;0.82;;;12.10;74.00;;;;;;5031863;28;20029;-74
2022/04/07 08:26:15;;;;;;;1.23;0.90;;;12.00;73.90;;;;;;5022053;28;20049;-74
2022/04/07 08:28:42;;;;;;;1.00;1.00;;;12.00;73.90;;;;;;5038080;28;20573;-75
2022/04/07 08:31:08;;;;;;;0.90;0.90;;;12.00;73.90;;;;;;5014048;28;20087;-74
2022/04/07 08:33:33;;;;;;;0.95;0.85;;;12.00;73.90;;;;;;5037402;28;20471;-74
2022/04/07 08:35:59;;;;;;;1.10;1.00;;;11.90;73.80;;;;;;5015789;28;20033;-74
2022/04/07 08:38:25;;;;;;;0.93;0.77;;;11.90;73.80;;;;;;5036660;28;20250;-74
2022/04/07 08:40:51;;;;;;;2.55;1.05;;;11.90;73.80;;;;;;5013505;28;20465;-74
2022/04/07 08:43:20;;;;;;;1.10;1.00;;;11.90;73.80;;;;;;5039036;28;20029;-74
2022/04/07 08:45:46;;;;;;;1.65;0.90;;;11.90;73.80;;;;;;5039327;28;20032;-76
2022/04/07 08:48:12;;;;;;;2.30;1.00;;;11.90;73.80;;;;;;5041091;28;20036;-75
2022/04/07 08:50:40;;;;;;;1.45;0.90;;;11.80;73.80;;;;;;5038836;28;20026;-74
2022/04/07 08:53:07;;;;;;;1.67;0.90;;;11.80;73.80;;;;;;5031083;28;20041;-75
2022/04/07 08:55:33;;;;;;;1.30;1.00;;;11.80;73.80;;;;;;5036466;28;20457;-74
2022/04/07 08:58:00;;;;;;;1.23;0.82;;;11.80;73.80;;;;;;5041851;28;20056;-75
2022/04/07 09:00:26;;;;;;;0.80;0.80;;;11.80;73.90;;;;;;5022596;28;20160;-74
2022/04/07 09:02:56;;;;;;;2.35;1.00;;;11.80;73.80;;;;;;5030435;28;20108;-76
2022/04/07 09:05:26;;;;;;;0.90;0.90;;;11.80;73.90;;;;;;5037328;28;20035;-75
2022/04/07 09:07:53;;;;;;;0.95;0.85;;;11.80;73.90;;;;;;5042109;28;20033;-74
2022/04/07 09:10:21;;;;;;;1.10;1.00;;;11.80;73.90;;;;;;5033032;28;20367;-73
2022/04/07 09:12:47;;;;;;;0.93;0.90;;;11.80;73.90;;;;;;5039601;28;20026;-74
2022/04/07 09:15:13;;;;;;;1.58;1.02;;;11.80;73.90;;;;;;5038161;28;20032;-74
2022/04/07 09:17:56;;;;;;;1.70;1.02;;;11.80;74.00;;;;;;5040595;28;20030;-74
2022/04/07 09:20:22;;;;;;;2.70;1.20;;;11.80;74.00;;;;;;5024989;28;20107;-73
2022/04/07 09:22:56;;;;;;;1.35;1.00;;;11.80;73.90;;;;;;5038794;28;20060;-74
2022/04/07 09:25:22;;;;;;;1.15;0.90;;;11.80;74.00;;;;;;5037787;28;20526;-74
2022/04/07 09:27:49;;;;;;;1.00;0.95;;;11.80;73.90;;;;;;5023885;28;20108;-74
2022/04/07 09:30:15;;;;;;;1.77;1.00;;;11.80;74.00;;;;;;5040786;28;20025;-73
2022/04/07 09:32:43;;;;;;;1.30;0.90;;;11.90;74.00;;;;;;5024895;28;20033;-74
2022/04/07 09:35:09;;;;;;;2.17;1.10;;;11.90;74.00;;;;;;5037090;28;20053;-75
2022/04/07 09:37:35;;;;;;;0.80;0.80;;;11.90;74.00;;;;;;5028013;28;20064;-74
2022/04/07 09:40:05;;;;;;;1.25;1.15;;;11.90;74.00;;;;;;5023257;28;20431;-74
2022/04/07 09:42:33;;;;;;;1.10;1.00;;;12.00;74.70;;;;;;5024548;28;20079;-73
2022/04/07 09:45:01;;;;;;;0.90;0.90;;;12.00;74.10;;;;;;5037503;28;20037;-75
2022/04/07 09:47:43;;;;;;;0.82;0.82;;;11.90;74.00;;;;;;5028773;28;20568;-74
2022/04/07 09:50:23;;;;;;;0.95;0.80;;;12.00;74.20;;;;;;5030114;28;20385;-74
2022/04/07 09:53:03;;;;;;;1.08;0.90;;;12.00;74.20;;;;;;5034842;28;20048;-74
2022/04/07 09:55:41;;;;;;;1.27;0.95;;;12.00;74.10;;;;;;5023429;28;20056;-75
2022/04/07 09:58:08;;;;;;;2.05;0.88;;;12.10;74.20;;;;;;5037476;28;20037;-74
2022/04/07 10:00:35;;;;;;;1.58;1.10;;;12.10;74.20;;;;;;5032513;28;20580;-72
2022/04/07 10:03:03;;;;;;;1.17;0.98;;;12.10;74.10;;;;;;5041914;28;20055;-73
2022/04/07 10:05:29;;;;;;;1.10;1.00;;;12.10;74.10;;;;;;5039446;28;20056;-72
2022/04/07 10:07:57;;;;;;;2.40;1.05;;;12.10;74.80;;;;;;5035374;28;20034;-75
2022/04/07 10:10:23;;;;;;;1.33;1.10;;;12.10;74.10;;;;;;5034973;28;20056;-74
2022/04/07 10:12:49;;;;;;;1.10;0.90;;;12.10;74.10;;;;;;5040790;28;20040;-74
2022/04/07 10:15:17;;;;;;;1.42;1.00;;;12.20;74.10;;;;;;5040707;28;20036;-74
2022/04/07 10:17:43;;;;;;;1.77;1.13;;;12.20;74.20;;;;;;5019993;28;20478;-73
2022/04/07 10:20:14;;;;;;;1.10;1.00;;;12.20;74.10;;;;;;5037767;28;20029;-73
2022/04/07 10:23:18;;;;;;;1.58;1.00;;;12.20;74.10;;;;;;5039000;28;20494;-74
2022/04/07 10:25:49;;;;;;;1.85;1.20;;;12.30;74.30;;;;;;5028763;28;20064;-74
2022/04/07 10:28:16;;;;;;;1.08;0.90;;;12.30;74.10;;;;;;5037134;28;20484;-75
2022/04/07 10:30:49;;;;;;;1.42;1.20;;;12.30;74.10;;;;;;5037902;28;20029;-74
2022/04/07 10:33:43;;;;;;;2.33;0.98;;;12.40;74.30;;;;;;5020819;28;20037;-75
2022/04/07 10:36:22;;;;;;;1.67;1.00;;;12.40;74.30;;;;;;5057071;28;20469;-74
2022/04/07 10:38:51;;;;;;;0.98;0.80;;;12.40;74.80;;;;;;5035581;28;20038;-75
2022/04/07 10:41:38;;;;;;;1.77;0.90;;;12.40;74.10;;;;;;5038368;28;20043;-74
2022/04/07 10:44:14;;;;;;;1.35;1.10;;;12.40;74.30;;;;;;5032489;28;20033;-74
2022/04/07 10:46:41;;;;;;;1.38;0.90;;;12.50;74.20;;;;;;5036017;28;20089;-75
2022/04/07 10:49:09;;;;;;;1.55;1.00;;;12.50;74.10;;;;;;5015026;28;20025;-76
2022/04/07 10:51:49;;;;;;;1.50;1.08;;;12.50;74.10;;;;;;5033257;28;20029;-75
2022/04/07 10:54:15;;;;;;;2.00;0.80;;;12.60;74.10;;;;;;5032632;28;20112;-76
2022/04/07 10:56:52;;;;;;;0.90;0.90;;;12.60;74.00;;;;;;5037365;28;20542;-76
2022/04/07 10:59:19;;;;;;;2.25;0.98;;;12.60;74.00;;;;;;5036657;28;20390;-75
2022/04/07 11:01:52;;;;;;;0.73;0.73;;;12.60;73.90;;;;;;5038136;28;20030;-75
2022/04/07 11:04:18;;;;;;;2.97;1.08;;;12.70;73.90;;;;;;5020324;28;20373;-75
2022/04/07 11:07:09;;;;;;;1.95;1.10;;;12.70;73.80;;;;;;5012357;28;20022;-74
2022/04/07 11:09:58;;;;;;;3.17;1.23;;;12.70;73.90;;;;;;5035583;28;20029;-74
2022/04/07 11:12:28;;;;;;;2.13;1.10;;;12.70;73.80;;;;;;5038060;28;20037;-74
2022/04/07 11:15:18;;;;;;;3.90;1.20;;;12.80;73.70;;;;;;5038939;28;20029;-74
2022/04/07 11:17:46;;;;;;;2.35;1.13;;;12.80;73.80;;;;;;5015579;28;20471;-74
2022/04/07 11:20:25;;;;;;;1.38;1.00;;;12.80;73.60;;;;;;5037549;28;20029;-74
2022/04/07 11:22:56;;;;;;;3.30;1.30;;;12.80;73.50;;;;;;5043975;28;20037;-74
2022/04/07 11:25:24;;;;;;;1.77;1.08;;;12.80;73.50;;;;;;5011287;28;20413;-74
2022/04/07 11:28:15;;;;;;;3.83;1.23;;;12.80;73.40;;;;;;5028044;28;20038;-74
2022/04/07 11:30:48;;;;;;;2.63;1.15;;;12.90;73.50;;;;;;5037623;28;20036;-76
2022/04/07 11:36:00;;;;;;;3.85;1.23;;;12.90;73.30;;;;;;5037451;28;20203;-74
2022/04/07 11:38:30;;;;;;;1.85;1.23;;;12.90;73.40;;;;;;5039315;28;20406;-75
2022/04/07 11:41:07;;;;;;;2.58;1.00;;;12.90;73.20;;;;;;5030259;28;20502;-75
2022/04/07 11:43:35;;;;;;;2.72;1.20;;;13.00;73.30;;;;;;5027776;28;20033;-75
2022/04/07 11:46:07;;;;;;;2.72;1.20;;;13.00;73.80;;;;;;5021983;28;20070;-74
2022/04/07 11:48:35;;;;;;;3.97;1.20;;;13.00;73.20;;;;;;5019547;28;20390;-75
2022/04/07 11:51:08;;;;;;;3.45;1.10;;;13.00;73.10;;;;;;5036489;28;20025;-74
2022/04/07 11:53:34;;;;;;;2.63;1.27;;;13.00;73.00;;;;;;5033555;28;20039;-75
2022/04/07 11:56:32;;;;;;;2.95;1.20;;;13.10;73.00;;;;;;5039186;28;20025;-74
2022/04/07 11:59:10;;;;;;;4.05;1.30;;;13.10;73.10;;;;;;5011170;28;20049;-74
2022/04/07 12:01:38;;;;;;;2.50;1.20;;;13.10;72.90;;;;;;5031846;28;20034;-74
2022/04/07 12:04:06;;;;;;;3.17;1.30;;;13.10;72.80;;;;;;5039624;28;20009;-76
2022/04/07 12:06:33;;;;;;;2.38;1.30;;;13.10;72.80;;;;;;5041845;28;20040;-74
2022/04/07 12:09:01;;;;;;;3.92;1.52;;;13.10;72.80;;;;;;5043235;28;20036;-74
2022/04/07 12:11:30;;;;;;;2.17;1.20;;;13.10;72.70;;;;;;5041660;28;20021;-75
2022/04/07 12:13:56;;;;;;;1.88;1.20;;;13.20;72.80;;;;;;5047525;28;20037;-74
2022/04/07 12:16:23;;;;;;;1.58;1.13;;;13.20;72.70;;;;;;5040425;28;20144;-75
2022/04/07 12:18:54;;;;;;;2.53;1.20;;;13.20;72.70;;;;;;5042311;28;20718;-76
2022/04/07 12:21:20;;;;;;;2.42;1.10;;;13.20;72.60;;;;;;5042594;28;20033;-76
2022/04/07 12:23:47;;;;;;;3.47;1.33;;;13.20;72.50;;;;;;5040936;28;20048;-75
2022/04/07 12:26:13;;;;;;;2.45;1.20;;;13.20;72.50;;;;;;5036236;28;20053;-76
2022/04/07 12:28:40;;;;;;;2.65;1.20;;;13.20;72.50;;;;;;5017114;28;20036;-75
2022/04/07 12:31:11;;;;;;;3.15;1.25;;;13.30;72.40;;;;;;5042514;28;20504;-74
2022/04/07 12:33:42;;;;;;;2.63;1.15;;;13.30;72.40;;;;;;5042416;28;20025;-75
2022/04/07 12:36:33;;;;;;;2.72;1.60;;;13.30;72.40;;;;;;5031305;28;20056;-75
2022/04/07 12:39:02;;;;;;;3.38;1.25;;;13.30;72.30;;;;;;5003105;28;20045;-74
2022/04/07 12:41:44;;;;;;;3.45;1.60;;;13.30;72.30;;;;;;5035973;28;20396;-74
2022/04/07 12:44:16;;;;;;;2.22;1.08;;;13.40;72.30;;;;;;5041221;28;20470;-75
2022/04/07 12:46:48;;;;;;;2.17;1.02;;;13.40;72.20;;;;;;5040699;28;20045;-74
2022/04/07 12:49:14;;;;;;;2.95;1.50;;;13.40;72.20;;;;;;5023180;28;20034;-74
2022/04/07 12:51:40;;;;;;;3.15;1.25;;;13.40;72.10;;;;;;5025453;28;20025;-76
2022/04/07 12:54:14;;;;;;;2.65;1.17;;;13.40;72.10;;;;;;5022960;28;20095;-75
2022/04/07 12:56:42;;;;;;;3.08;1.23;;;13.40;72.10;;;;;;5013917;28;20745;-74